Time;durP1;ratioP1;P1;durP2;ratioP2;P2;SDS_P1;SDS_P2;PMS_P1;PMS_P2;Temp;Humidity;BMP_temperature;BMP_pressure;BME280_temperature;BME280_humidity;BME280_pressure;Samples;Min_cycle;Max_cycle;Signal;HPM_P1;HPM_P2
2023/01/08 00:02:03;;;;;;;8.90;2.20;;;9.90;99.90;;;;;;4954696;28;38297;-76
2023/01/08 00:04:29;;;;;;;6.23;2.43;;;9.90;99.90;;;;;;4954636;28;37085;-76
2023/01/08 00:06:55;;;;;;;10.43;2.40;;;9.90;99.90;;;;;;4943909;28;37657;-76
2023/01/08 00:09:21;;;;;;;8.03;2.63;;;9.80;99.90;;;;;;4960701;28;38438;-75
2023/01/08 00:11:48;;;;;;;11.83;2.57;;;9.80;99.90;;;;;;4941330;28;39057;-76
2023/01/08 00:14:14;;;;;;;11.33;3.37;;;9.90;99.90;;;;;;4941706;28;36176;-76
2023/01/08 00:16:40;;;;;;;8.07;2.90;;;9.90;99.90;;;;;;4965195;28;38970;-76
2023/01/08 00:19:06;;;;;;;9.03;3.20;;;9.90;99.90;;;;;;4963586;28;39193;-75
2023/01/08 00:21:32;;;;;;;7.80;3.47;;;10.00;99.90;;;;;;4947449;28;37384;-76
2023/01/08 00:23:59;;;;;;;16.73;3.50;;;10.00;99.90;;;;;;4953973;28;37721;-76
2023/01/08 00:26:25;;;;;;;11.73;3.50;;;10.10;99.90;;;;;;4943173;28;37918;-76
2023/01/08 00:28:51;;;;;;;9.77;3.73;;;10.10;99.90;;;;;;4953858;28;39157;-77
2023/01/08 00:31:17;;;;;;;13.17;4.03;;;10.10;99.90;;;;;;4939250;28;39005;-76
2023/01/08 00:33:43;;;;;;;9.30;3.03;;;10.30;99.90;;;;;;4958040;28;37861;-76
2023/01/08 00:36:16;;;;;;;13.17;3.23;;;10.30;99.90;;;;;;4945024;28;37285;-74
2023/01/08 00:38:42;;;;;;;;;;;10.30;99.90;;;;;;4937136;28;38773;-75
2023/01/08 00:41:09;;;;;;;12.57;3.43;;;10.30;99.90;;;;;;4932503;28;38229;-75
2023/01/08 00:43:35;;;;;;;11.23;4.03;;;10.30;99.90;;;;;;4943902;28;36707;-76
2023/01/08 00:46:02;;;;;;;11.97;3.30;;;10.40;99.90;;;;;;4930619;28;40586;-76
2023/01/08 00:48:28;;;;;;;8.53;3.03;;;10.40;99.90;;;;;;4953170;28;37327;-75
2023/01/08 00:50:54;;;;;;;11.87;3.17;;;10.30;99.90;;;;;;4936359;28;38533;-75
2023/01/08 00:53:21;;;;;;;10.23;3.30;;;10.30;99.90;;;;;;4949555;28;37348;-75
2023/01/08 00:55:47;;;;;;;11.67;2.90;;;10.30;99.90;;;;;;4934396;28;38745;-75
2023/01/08 00:58:14;;;;;;;7.97;2.33;;;10.30;99.90;;;;;;4938519;28;39061;-75
2023/01/08 01:00:40;;;;;;;11.03;2.50;;;10.20;99.90;;;;;;4948501;28;38529;-75
2023/01/08 01:03:07;;;;;;;9.63;2.13;;;10.20;99.90;;;;;;4948544;28;36939;-75
2023/01/08 01:05:33;;;;;;;7.57;1.93;;;10.10;99.90;;;;;;4937497;28;37638;-74
2023/01/08 01:07:59;;;;;;;7.73;1.47;;;10.10;99.90;;;;;;4935959;28;37568;-74
2023/01/08 01:10:25;;;;;;;10.73;2.57;;;10.00;99.90;;;;;;4940537;28;38386;-74
2023/01/08 01:12:51;;;;;;;4.57;1.57;;;9.90;99.90;;;;;;4947361;28;37505;-74
2023/01/08 01:15:17;;;;;;;8.20;2.03;;;9.90;99.90;;;;;;4953642;28;37156;-75
2023/01/08 01:17:45;;;;;;;5.20;1.50;;;9.80;99.90;;;;;;4951704;28;39484;-75
2023/01/08 01:20:13;;;;;;;8.70;1.80;;;9.80;99.90;;;;;;4936851;28;38204;-75
2023/01/08 01:22:40;;;;;;;9.13;1.67;;;9.80;99.90;;;;;;4945414;28;37388;-74
2023/01/08 01:25:07;;;;;;;7.57;1.47;;;9.70;99.90;;;;;;4942730;28;38754;-75
2023/01/08 01:27:33;;;;;;;5.93;1.40;;;9.70;99.90;;;;;;4933885;28;38849;-75
2023/01/08 01:29:59;;;;;;;4.13;1.70;;;9.60;99.90;;;;;;4954713;28;38120;-75
2023/01/08 01:32:26;;;;;;;7.60;2.03;;;9.60;99.90;;;;;;4950291;28;37395;-74
2023/01/08 01:34:52;;;;;;;5.20;1.30;;;9.60;99.90;;;;;;4926390;28;38382;-75
2023/01/08 01:37:18;;;;;;;7.37;2.10;;;9.60;99.90;;;;;;4929161;28;40402;-75
2023/01/08 01:39:45;;;;;;;7.10;2.00;;;9.60;99.90;;;;;;4946459;28;39394;-75
2023/01/08 01:45:13;;;;;;;11.80;2.23;;;9.60;99.90;;;;;;4949084;28;39054;-75
2023/01/08 01:47:40;;;;;;;8.33;1.83;;;9.60;99.90;;;;;;4943041;28;48756;-74
2023/01/08 01:50:12;;;;;;;9.87;2.20;;;9.60;99.90;;;;;;4943217;28;38555;-75
2023/01/08 01:52:58;;;;;;;10.97;3.00;;;9.60;99.90;;;;;;4945440;28;36905;-74
2023/01/08 01:55:25;;;;;;;14.10;2.13;;;9.60;99.90;;;;;;4934639;28;37412;-75
2023/01/08 01:58:07;;;;;;;6.37;1.60;;;9.60;99.90;;;;;;4945096;28;39586;-75
2023/01/08 02:03:11;;;;;;;9.63;2.23;;;9.60;99.90;;;;;;5230292;23;20088;-83
2023/01/08 02:05:48;;;;;;;9.27;1.87;;;9.70;99.90;;;;;;4952713;28;37986;-83
2023/01/08 02:08:28;;;;;;;6.67;2.00;;;9.70;99.90;;;;;;4955264;28;38964;-83
2023/01/08 02:11:10;;;;;;;11.70;1.70;;;9.70;99.90;;;;;;4937281;28;37330;-83
2023/01/08 02:13:40;;;;;;;6.78;2.45;;;9.70;99.90;;;;;;4952574;28;49236;-83
2023/01/08 02:16:17;;;;;;;10.27;1.70;;;9.70;99.90;;;;;;4955630;28;38036;-82
2023/01/08 02:18:49;;;;;;;11.10;2.20;;;9.70;99.90;;;;;;4954493;28;39109;-83
2023/01/08 02:21:46;;;;;;;8.97;2.00;;;9.70;99.90;;;;;;4957896;28;38277;-83
2023/01/08 02:24:40;;;;;;;7.17;2.17;;;9.70;99.90;;;;;;4955327;28;35872;-82
2023/01/08 02:27:07;;;;;;;7.33;1.60;;;9.70;99.90;;;;;;4957638;28;39111;-82
2023/01/08 02:29:34;;;;;;;9.70;1.47;;;9.70;99.90;;;;;;4939228;28;37358;-83
2023/01/08 02:32:01;;;;;;;9.20;1.63;;;9.70;99.90;;;;;;4937139;28;37995;-82
2023/01/08 02:34:27;;;;;;;7.57;1.40;;;9.70;99.90;;;;;;4957042;28;47910;-82
2023/01/08 02:36:55;;;;;;;10.00;1.70;;;9.70;99.90;;;;;;4957719;28;39418;-83
2023/01/08 02:39:42;;;;;;;4.70;1.50;;;9.70;99.90;;;;;;4954242;28;37709;-83
2023/01/08 02:42:08;;;;;;;7.70;1.43;;;9.70;99.90;;;;;;4932661;28;38688;-82
2023/01/08 02:45:03;;;;;;;8.80;1.90;;;9.70;99.90;;;;;;4953395;28;38647;-80
2023/01/08 02:47:35;;;;;;;8.17;1.67;;;9.60;99.90;;;;;;4932070;28;37868;-82
2023/01/08 02:50:27;;;;;;;9.87;1.57;;;9.60;99.90;;;;;;4935280;28;38944;-83
2023/01/08 02:53:11;;;;;;;8.15;1.52;;;9.60;99.90;;;;;;4932719;28;47865;-82
2023/01/08 02:55:39;;;;;;;10.03;1.80;;;9.70;99.90;;;;;;4954354;28;48635;-82
2023/01/08 02:58:07;;;;;;;5.80;1.70;;;9.60;99.90;;;;;;4934637;28;37090;-82
2023/01/08 03:00:34;;;;;;;9.93;1.57;;;9.70;99.90;;;;;;4940626;28;38359;-83
2023/01/08 03:03:12;;;;;;;7.07;1.20;;;9.60;99.90;;;;;;4937863;28;37266;-82
2023/01/08 03:05:42;;;;;;;9.70;1.83;;;9.60;99.90;;;;;;4939371;28;47380;-82
2023/01/08 03:08:10;;;;;;;13.30;1.43;;;9.60;99.90;;;;;;4957995;28;38423;-82
2023/01/08 03:10:39;;;;;;;8.57;1.47;;;9.60;99.90;;;;;;4960313;28;39053;-82
2023/01/08 03:13:16;;;;;;;7.80;1.53;;;9.60;99.90;;;;;;4938769;28;37411;-82
2023/01/08 03:15:46;;;;;;;8.07;1.47;;;9.60;99.90;;;;;;4955063;28;37085;-82
2023/01/08 03:18:18;;;;;;;6.23;1.70;;;9.60;99.90;;;;;;4945782;28;37618;-82
2023/01/08 03:20:44;;;;;;;10.25;1.80;;;9.60;99.90;;;;;;4959503;28;39470;-82
2023/01/08 03:23:13;;;;;;;10.90;1.83;;;9.50;99.90;;;;;;4958450;28;38868;-82
2023/01/08 03:25:42;;;;;;;11.03;1.60;;;9.50;99.90;;;;;;4958742;28;37330;-82
2023/01/08 03:28:23;;;;;;;6.70;1.70;;;9.50;99.90;;;;;;4955451;28;38616;-82
2023/01/08 03:30:52;;;;;;;5.73;1.27;;;9.50;99.90;;;;;;4945589;28;37998;-82
2023/01/08 03:33:19;;;;;;;12.70;1.93;;;9.50;99.90;;;;;;4956738;28;38802;-82
2023/01/08 03:35:49;;;;;;;8.30;1.50;;;9.40;99.90;;;;;;4954445;28;38134;-82
2023/01/08 03:38:22;;;;;;;3.63;1.20;;;9.30;99.90;;;;;;4950712;28;37800;-82
2023/01/08 03:40:55;;;;;;;9.53;1.57;;;9.30;99.90;;;;;;4957334;28;38382;-82
2023/01/08 03:43:21;;;;;;;18.97;1.87;;;9.30;99.90;;;;;;4939265;28;37057;-82
2023/01/08 03:45:54;;;;;;;7.20;1.53;;;9.30;99.90;;;;;;4955432;28;37066;-81
2023/01/08 03:48:21;;;;;;;15.30;1.60;;;9.20;99.90;;;;;;4937648;28;37701;-82
2023/01/08 03:50:47;;;;;;;11.93;2.20;;;9.20;99.90;;;;;;4954906;28;38514;-82
2023/01/08 03:53:14;;;;;;;10.20;1.37;;;9.20;99.90;;;;;;4953599;28;39304;-82
2023/01/08 03:55:40;;;;;;;11.47;1.27;;;9.00;99.90;;;;;;4958247;28;37267;-82
2023/01/08 03:58:06;;;;;;;15.83;2.40;;;8.90;99.90;;;;;;4936912;28;37322;-82
2023/01/08 04:00:32;;;;;;;9.60;1.70;;;9.00;99.90;;;;;;4937992;28;38248;-83
2023/01/08 04:02:58;;;;;;;8.90;1.93;;;9.00;99.90;;;;;;4957094;28;37975;-82
2023/01/08 04:05:24;;;;;;;12.80;1.70;;;9.10;99.90;;;;;;4954626;28;36993;-81
2023/01/08 04:07:54;;;;;;;9.27;2.00;;;9.00;99.90;;;;;;4956710;28;38256;-83
2023/01/08 04:10:20;;;;;;;12.03;1.40;;;9.00;99.90;;;;;;4936935;28;37880;-82
2023/01/08 04:12:46;;;;;;;6.87;1.40;;;9.10;99.90;;;;;;4936532;28;37696;-82
2023/01/08 04:15:12;;;;;;;10.57;1.63;;;9.00;99.90;;;;;;4956514;28;35804;-82
2023/01/08 04:17:38;;;;;;;8.73;1.57;;;9.00;99.90;;;;;;4940103;28;37912;-83
2023/01/08 04:20:05;;;;;;;7.20;1.70;;;8.90;99.90;;;;;;4958493;28;39122;-82
2023/01/08 04:22:31;;;;;;;9.30;1.60;;;8.80;99.90;;;;;;4946062;28;46152;-82
2023/01/08 04:24:57;;;;;;;10.00;2.23;;;8.80;99.90;;;;;;4942826;28;35825;-82
2023/01/08 04:27:24;;;;;;;7.40;1.73;;;8.80;99.90;;;;;;4960817;28;37243;-82
2023/01/08 04:29:50;;;;;;;12.47;2.33;;;8.80;99.90;;;;;;4962189;28;39827;-82
2023/01/08 04:32:16;;;;;;;9.67;2.30;;;8.80;99.90;;;;;;4959770;28;39120;-83
2023/01/08 04:34:42;;;;;;;9.43;1.83;;;8.80;99.90;;;;;;4958695;28;37399;-82
2023/01/08 04:37:08;;;;;;;8.33;1.90;;;8.80;99.90;;;;;;4943670;28;40572;-82
2023/01/08 04:39:34;;;;;;;11.30;2.60;;;8.80;99.90;;;;;;4944440;28;38332;-82
2023/01/08 04:42:00;;;;;;;10.57;2.00;;;8.80;99.90;;;;;;4960057;28;38451;-82
2023/01/08 04:44:26;;;;;;;10.70;2.00;;;8.80;99.90;;;;;;4958245;28;36650;-82
2023/01/08 04:46:52;;;;;;;8.10;2.60;;;8.70;99.90;;;;;;4944393;28;37976;-83
2023/01/08 04:49:18;;;;;;;7.67;1.80;;;8.70;99.90;;;;;;4943903;28;38422;-82
2023/01/08 04:51:44;;;;;;;9.37;2.67;;;8.60;99.90;;;;;;4958683;28;39483;-82
2023/01/08 04:54:10;;;;;;;7.13;1.90;;;8.60;99.90;;;;;;4942853;28;37180;-82
2023/01/08 04:56:36;;;;;;;9.43;2.07;;;8.60;99.90;;;;;;4961379;28;39296;-82
2023/01/08 04:59:03;;;;;;;10.33;2.20;;;8.60;99.90;;;;;;4941385;28;37547;-82
2023/01/08 05:01:29;;;;;;;14.57;2.03;;;8.50;99.90;;;;;;4958567;28;38908;-82
2023/01/08 05:03:57;;;;;;;12.10;2.27;;;8.50;99.90;;;;;;4944888;28;36213;-82
2023/01/08 05:06:24;;;;;;;12.50;2.07;;;8.50;99.90;;;;;;4939858;28;37716;-82
2023/01/08 05:08:50;;;;;;;11.30;1.77;;;8.50;99.90;;;;;;4942240;28;37977;-82
2023/01/08 05:11:16;;;;;;;8.93;2.67;;;8.40;99.90;;;;;;4941906;28;37378;-82
2023/01/08 05:13:43;;;;;;;17.30;2.23;;;8.50;99.90;;;;;;4959120;28;36765;-82
2023/01/08 05:16:09;;;;;;;9.83;2.00;;;8.50;99.90;;;;;;4959519;28;39811;-83
2023/01/08 05:18:37;;;;;;;9.50;2.50;;;8.40;99.90;;;;;;4960587;28;39901;-83
2023/01/08 05:21:04;;;;;;;10.17;3.77;;;8.30;99.90;;;;;;4941053;28;37781;-82
2023/01/08 05:23:31;;;;;;;17.17;3.03;;;8.30;99.90;;;;;;4956695;28;37606;-82
2023/01/08 05:26:02;;;;;;;15.73;2.67;;;8.30;99.90;;;;;;4958589;28;39467;-82
2023/01/08 05:28:29;;;;;;;9.77;2.10;;;8.20;99.90;;;;;;4935709;28;47132;-82
2023/01/08 05:30:55;;;;;;;12.50;2.50;;;8.20;99.90;;;;;;4955479;28;37480;-82
2023/01/08 05:33:26;;;;;;;13.53;2.27;;;8.30;99.90;;;;;;4957477;28;36846;-82
2023/01/08 05:35:52;;;;;;;10.27;2.50;;;8.30;99.90;;;;;;4957298;28;38790;-82
2023/01/08 05:38:20;;;;;;;12.17;2.53;;;8.30;99.90;;;;;;4961353;28;39610;-83
2023/01/08 05:40:46;;;;;;;13.67;2.83;;;8.30;99.90;;;;;;4951772;28;38477;-82
2023/01/08 05:43:12;;;;;;;13.67;2.50;;;8.20;99.90;;;;;;4964963;28;36908;-82
2023/01/08 05:45:41;;;;;;;15.43;2.47;;;8.30;99.90;;;;;;4964278;28;38922;-82
2023/01/08 05:48:09;;;;;;;10.33;2.77;;;8.20;99.90;;;;;;4963991;28;39632;-82
2023/01/08 05:50:35;;;;;;;12.37;2.83;;;8.20;99.90;;;;;;4961329;28;38789;-82
2023/01/08 05:53:07;;;;;;;12.23;3.07;;;8.30;99.90;;;;;;4948393;28;37029;-79
2023/01/08 05:55:34;;;;;;;15.30;3.05;;;8.30;99.90;;;;;;4949809;28;37620;-82
2023/01/08 05:58:02;;;;;;;14.17;3.37;;;8.40;99.90;;;;;;4946641;28;37711;-82
2023/01/08 06:00:29;;;;;;;16.37;2.83;;;8.30;99.90;;;;;;4960644;28;47199;-82
2023/01/08 06:02:55;;;;;;;12.43;2.87;;;8.40;99.90;;;;;;4960615;28;36127;-81
2023/01/08 06:05:24;;;;;;;13.93;3.07;;;8.40;99.90;;;;;;4963574;28;39909;-82
2023/01/08 06:07:50;;;;;;;8.53;2.40;;;8.40;99.90;;;;;;4944324;28;37113;-82
2023/01/08 06:10:16;;;;;;;13.63;2.20;;;8.40;99.90;;;;;;4947387;28;38149;-82
2023/01/08 06:12:42;;;;;;;14.97;2.63;;;8.40;99.90;;;;;;4962371;28;37320;-82
2023/01/08 06:15:10;;;;;;;14.13;2.30;;;8.40;99.90;;;;;;4958958;28;39046;-83
2023/01/08 06:17:36;;;;;;;12.00;2.30;;;8.30;99.90;;;;;;4944354;28;39063;-83
2023/01/08 06:20:02;;;;;;;10.43;2.40;;;8.30;99.90;;;;;;4941341;28;37302;-82
2023/01/08 06:22:28;;;;;;;11.33;2.40;;;8.30;99.90;;;;;;4960562;28;36993;-82
2023/01/08 06:24:54;;;;;;;11.30;2.13;;;8.30;99.90;;;;;;4938976;28;37312;-82
2023/01/08 06:27:20;;;;;;;17.73;2.40;;;8.30;99.90;;;;;;4962717;28;38743;-83
2023/01/08 06:29:46;;;;;;;12.33;2.00;;;8.30;99.90;;;;;;4959274;28;40803;-81
2023/01/08 06:32:13;;;;;;;12.13;2.17;;;8.40;99.90;;;;;;4954528;28;37198;-83
2023/01/08 06:34:39;;;;;;;9.53;2.00;;;8.40;99.90;;;;;;4941112;28;37183;-82
2023/01/08 06:37:05;;;;;;;18.03;2.90;;;8.40;99.90;;;;;;4936520;28;38170;-82
2023/01/08 06:39:31;;;;;;;10.47;1.80;;;8.40;99.90;;;;;;4953792;28;37253;-82
2023/01/08 06:41:57;;;;;;;11.50;1.77;;;8.30;99.90;;;;;;4958443;28;35886;-82
2023/01/08 06:44:24;;;;;;;15.33;2.60;;;8.30;99.90;;;;;;4955462;28;40414;-83
2023/01/08 06:46:50;;;;;;;9.57;2.27;;;8.30;99.90;;;;;;4957378;28;38895;-81
2023/01/08 06:49:16;;;;;;;10.83;2.27;;;8.30;99.90;;;;;;4941249;28;37305;-83
2023/01/08 06:51:42;;;;;;;8.97;2.40;;;8.30;99.90;;;;;;4938832;28;35947;-82
2023/01/08 06:54:08;;;;;;;16.77;2.30;;;8.20;99.90;;;;;;4954238;28;39290;-81
2023/01/08 06:56:34;;;;;;;9.53;1.90;;;8.20;99.90;;;;;;4950096;28;39165;-82
2023/01/08 06:59:00;;;;;;;13.87;1.70;;;8.20;99.90;;;;;;4952629;28;38764;-82
2023/01/08 07:01:26;;;;;;;11.47;1.93;;;8.20;99.90;;;;;;4937345;28;38107;-82
2023/01/08 07:03:53;;;;;;;12.20;2.00;;;8.20;99.90;;;;;;4954675;28;38610;-82
2023/01/08 07:06:21;;;;;;;8.07;1.53;;;8.20;99.90;;;;;;4932929;28;37917;-83
2023/01/08 07:08:47;;;;;;;15.90;2.40;;;8.20;99.90;;;;;;4952850;28;36718;-82
2023/01/08 07:11:14;;;;;;;14.70;2.70;;;8.10;99.90;;;;;;4935538;28;35878;-82
2023/01/08 07:13:41;;;;;;;14.77;2.60;;;8.20;99.90;;;;;;4940538;28;37301;-82
2023/01/08 07:16:12;;;;;;;15.57;2.10;;;8.20;99.90;;;;;;4933840;28;38930;-83
2023/01/08 07:18:38;;;;;;;12.27;2.67;;;8.20;99.90;;;;;;4949920;28;38320;-82
2023/01/08 07:21:06;;;;;;;10.27;1.83;;;8.20;99.90;;;;;;4937235;28;36423;-83
2023/01/08 07:23:33;;;;;;;8.93;2.23;;;8.10;99.90;;;;;;4955151;28;38573;-82
2023/01/08 07:26:01;;;;;;;15.67;2.47;;;8.10;99.90;;;;;;4960029;28;38940;-82
2023/01/08 07:28:27;;;;;;;20.60;2.23;;;8.00;99.90;;;;;;4952689;28;46574;-82
2023/01/08 07:30:53;;;;;;;9.87;1.87;;;8.10;99.90;;;;;;4954618;28;37739;-82
2023/01/08 07:33:20;;;;;;;10.63;2.83;;;8.00;99.90;;;;;;4950071;28;40041;-82
2023/01/08 07:35:55;;;;;;;14.43;3.00;;;8.10;99.90;;;;;;4955909;28;41124;-82
2023/01/08 07:38:22;;;;;;;16.23;2.93;;;8.10;99.90;;;;;;4936928;28;37667;-83
2023/01/08 07:40:48;;;;;;;9.27;1.80;;;8.00;99.90;;;;;;4950973;28;36236;-83
2023/01/08 07:43:14;;;;;;;17.33;2.53;;;8.00;99.90;;;;;;4952306;28;38886;-82
2023/01/08 07:45:41;;;;;;;13.90;2.10;;;8.00;99.90;;;;;;4952357;28;39662;-83
2023/01/08 07:48:09;;;;;;;17.63;2.73;;;8.00;99.90;;;;;;4936157;28;37800;-82
2023/01/08 07:50:37;;;;;;;14.57;3.33;;;7.90;99.90;;;;;;4938254;28;37689;-82
2023/01/08 07:53:03;;;;;;;13.63;2.53;;;8.00;99.90;;;;;;4937139;28;38115;-82
2023/01/08 07:55:30;;;;;;;10.63;2.23;;;8.00;99.90;;;;;;4934955;28;37802;-82
2023/01/08 07:57:57;;;;;;;21.57;2.60;;;8.00;99.90;;;;;;4934181;28;38850;-83
2023/01/08 08:00:23;;;;;;;16.97;2.07;;;8.00;99.90;;;;;;4950520;28;38117;-83
2023/01/08 08:02:49;;;;;;;18.73;2.47;;;8.00;99.90;;;;;;4955369;28;38523;-83
2023/01/08 08:05:17;;;;;;;16.67;2.67;;;8.00;99.90;;;;;;4937931;28;37523;-83
2023/01/08 08:07:43;;;;;;;18.40;2.83;;;8.00;99.90;;;;;;4956431;28;38535;-82
2023/01/08 08:10:10;;;;;;;13.97;2.20;;;8.10;99.90;;;;;;4949027;28;37533;-83
2023/01/08 08:12:36;;;;;;;14.00;1.80;;;8.10;99.90;;;;;;4957913;28;39560;-82
2023/01/08 08:15:03;;;;;;;15.60;2.27;;;8.10;99.90;;;;;;4957539;28;38980;-82
2023/01/08 08:17:29;;;;;;;14.17;2.40;;;8.10;99.90;;;;;;4956422;28;38569;-82
2023/01/08 08:19:55;;;;;;;15.27;2.00;;;8.10;99.90;;;;;;4957637;28;37409;-83
2023/01/08 08:22:21;;;;;;;17.00;2.67;;;8.10;99.90;;;;;;4949637;28;38914;-82
2023/01/08 08:24:47;;;;;;;22.17;2.17;;;8.20;99.90;;;;;;4953492;28;38921;-81
2023/01/08 08:27:13;;;;;;;8.27;2.00;;;8.20;99.90;;;;;;4955964;28;39195;-83
2023/01/08 08:29:39;;;;;;;11.73;1.83;;;8.20;99.90;;;;;;4942547;28;36149;-82
2023/01/08 08:32:05;;;;;;;9.87;2.17;;;8.20;99.90;;;;;;4934855;28;39012;-83
2023/01/08 08:34:32;;;;;;;15.20;2.07;;;8.20;99.90;;;;;;4942853;28;37969;-83
2023/01/08 08:36:58;;;;;;;13.27;2.70;;;8.20;99.90;;;;;;4955771;28;38462;-82
2023/01/08 08:39:24;;;;;;;14.10;1.90;;;8.10;99.90;;;;;;4963487;28;37395;-82
2023/01/08 08:41:50;;;;;;;10.90;1.87;;;8.20;99.90;;;;;;4939382;28;37999;-82
2023/01/08 08:44:16;;;;;;;15.70;2.20;;;8.10;99.90;;;;;;4958822;28;38793;-82
2023/01/08 08:46:42;;;;;;;14.33;2.13;;;8.20;99.90;;;;;;4957230;28;38049;-81
2023/01/08 08:49:08;;;;;;;15.63;1.77;;;8.20;99.90;;;;;;4959527;28;37144;-82
2023/01/08 08:51:34;;;;;;;12.50;2.17;;;8.20;99.90;;;;;;4944047;28;38725;-81
2023/01/08 08:54:01;;;;;;;14.77;2.97;;;8.30;99.90;;;;;;4955868;28;39125;-82
2023/01/08 08:56:28;;;;;;;12.23;2.27;;;8.30;99.90;;;;;;4944635;28;36835;-82
2023/01/08 08:58:54;;;;;;;7.63;1.50;;;8.30;99.90;;;;;;4958784;28;37661;-83
2023/01/08 09:01:22;;;;;;;12.00;1.87;;;8.30;99.90;;;;;;4961189;28;37891;-83
2023/01/08 09:03:48;;;;;;;13.93;1.80;;;8.40;99.90;;;;;;4961638;28;39338;-83
2023/01/08 09:06:15;;;;;;;16.53;2.20;;;8.40;99.90;;;;;;4943032;28;37450;-83
2023/01/08 09:08:41;;;;;;;20.30;2.27;;;8.40;99.90;;;;;;4945254;28;36236;-83
2023/01/08 09:11:07;;;;;;;11.50;1.83;;;8.40;99.90;;;;;;4962978;28;38674;-83
2023/01/08 09:13:35;;;;;;;17.53;2.53;;;8.40;99.90;;;;;;4966535;28;37732;-82
2023/01/08 09:16:02;;;;;;;11.23;2.03;;;8.50;99.90;;;;;;4949025;28;37807;-80
2023/01/08 09:18:28;;;;;;;15.90;2.57;;;8.50;99.90;;;;;;4942761;28;35978;-82
2023/01/08 09:20:54;;;;;;;14.63;3.00;;;8.50;99.90;;;;;;4941157;28;37891;-82
2023/01/08 09:23:20;;;;;;;12.63;2.20;;;8.50;99.90;;;;;;4953126;28;38349;-82
2023/01/08 09:25:46;;;;;;;12.80;2.47;;;8.50;99.90;;;;;;4958849;28;37422;-81
2023/01/08 09:28:12;;;;;;;14.23;2.27;;;8.60;99.90;;;;;;4959416;28;37135;-83
2023/01/08 09:30:39;;;;;;;11.97;1.93;;;8.60;99.90;;;;;;4963474;28;38702;-83
2023/01/08 09:33:05;;;;;;;12.77;3.37;;;8.60;99.90;;;;;;4946920;28;38724;-83
2023/01/08 09:35:32;;;;;;;15.00;2.00;;;8.70;99.90;;;;;;4943138;28;38643;-82
2023/01/08 09:37:59;;;;;;;15.43;2.27;;;8.70;99.90;;;;;;4961852;28;37193;-82
2023/01/08 09:40:42;;;;;;;11.00;2.00;;;8.80;99.90;;;;;;4944769;28;37222;-82
2023/01/08 09:43:16;;;;;;;13.50;2.43;;;8.80;99.90;;;;;;4964044;28;39076;-82
2023/01/08 09:45:44;;;;;;;9.60;2.13;;;8.90;99.90;;;;;;4962638;28;38241;-83
2023/01/08 09:48:14;;;;;;;15.13;2.10;;;8.80;99.90;;;;;;4946556;28;36794;-82
2023/01/08 09:50:40;;;;;;;8.10;2.30;;;9.00;99.90;;;;;;4954896;28;36559;-82
2023/01/08 09:53:13;;;;;;;17.83;3.13;;;9.00;99.90;;;;;;4950021;28;39203;-82
2023/01/08 09:55:39;;;;;;;18.52;2.40;;;9.00;99.90;;;;;;4950209;28;38468;-83
2023/01/08 09:58:31;;;;;;;12.40;2.47;;;9.10;99.90;;;;;;4953577;28;37238;-82
2023/01/08 10:00:59;;;;;;;12.90;2.03;;;9.20;99.90;;;;;;4943770;28;38799;-83
2023/01/08 10:03:38;;;;;;;12.33;1.73;;;9.20;99.90;;;;;;4932904;28;37597;-82
2023/01/08 10:06:13;;;;;;;13.57;2.23;;;9.30;99.90;;;;;;4933538;28;38298;-82
2023/01/08 10:08:41;;;;;;;14.17;2.37;;;9.30;99.90;;;;;;4939716;28;37265;-83
2023/01/08 10:11:08;;;;;;;12.37;2.07;;;9.40;99.90;;;;;;4947025;28;37486;-83
2023/01/08 10:13:39;;;;;;;13.87;1.83;;;9.40;99.90;;;;;;4965153;28;39480;-83
2023/01/08 10:16:08;;;;;;;10.63;1.93;;;9.40;99.90;;;;;;4944433;28;37381;-83
2023/01/08 10:18:35;;;;;;;13.00;2.47;;;9.40;99.90;;;;;;4938328;28;36117;-84
2023/01/08 10:21:01;;;;;;;10.20;2.03;;;9.40;99.90;;;;;;4948627;28;37328;-83
2023/01/08 10:23:27;;;;;;;9.83;2.37;;;9.50;99.90;;;;;;4964071;28;48987;-83
2023/01/08 10:25:54;;;;;;;14.20;2.00;;;9.50;99.90;;;;;;4950400;28;36793;-84
2023/01/08 10:28:22;;;;;;;11.57;2.37;;;9.60;99.90;;;;;;4953614;28;37036;-84
2023/01/08 10:30:50;;;;;;;8.70;2.00;;;9.60;99.90;;;;;;4958396;28;39412;-83
2023/01/08 10:33:23;;;;;;;13.13;2.80;;;9.70;99.90;;;;;;4963669;28;38724;-83
2023/01/08 10:36:06;;;;;;;11.63;2.70;;;9.70;99.90;;;;;;4968531;28;38437;-83
2023/01/08 10:38:36;;;;;;;15.87;2.63;;;9.70;99.90;;;;;;4958322;28;47780;-83
2023/01/08 10:41:06;;;;;;;7.97;1.50;;;9.70;99.90;;;;;;4959074;28;38629;-83
2023/01/08 10:43:52;;;;;;;10.03;2.33;;;9.70;99.90;;;;;;4950600;28;37192;-84
2023/01/08 10:46:40;;;;;;;6.77;1.70;;;9.70;99.90;;;;;;4956295;28;37806;-84
2023/01/08 10:49:32;;;;;;;8.33;2.00;;;9.70;99.90;;;;;;4961660;28;37771;-83
2023/01/08 10:51:59;;;;;;;8.53;1.73;;;9.70;99.90;;;;;;4963987;28;39868;-83
2023/01/08 10:54:39;;;;;;;4.60;1.30;;;9.80;99.90;;;;;;4952518;28;39053;-84
2023/01/08 10:57:27;;;;;;;8.17;1.70;;;9.80;99.90;;;;;;4964748;28;38987;-83
2023/01/08 10:59:54;;;;;;;11.57;1.60;;;9.80;99.90;;;;;;4968606;28;37387;-82
2023/01/08 11:02:35;;;;;;;8.57;1.63;;;9.80;99.90;;;;;;4944448;28;37620;-84
2023/01/08 11:05:04;;;;;;;6.87;1.60;;;9.80;99.90;;;;;;4957959;28;39710;-83
2023/01/08 11:07:34;;;;;;;6.63;1.40;;;9.80;99.90;;;;;;4963351;28;38589;-83
2023/01/08 11:10:01;;;;;;;12.97;1.83;;;9.90;99.90;;;;;;4960715;28;37330;-83
2023/01/08 11:12:37;;;;;;;8.47;1.70;;;9.90;99.90;;;;;;4959436;28;40120;-83
2023/01/08 11:15:06;;;;;;;10.07;2.00;;;9.90;99.90;;;;;;4941512;28;37786;-83
2023/01/08 11:17:33;;;;;;;6.50;1.80;;;9.90;99.90;;;;;;4946076;28;47351;-84
2023/01/08 11:20:28;;;;;;;7.43;1.63;;;10.00;99.90;;;;;;4951791;28;36407;-83
2023/01/08 11:23:23;;;;;;;9.63;2.57;;;10.00;99.90;;;;;;4941420;28;46839;-84
2023/01/08 11:25:58;;;;;;;8.37;1.80;;;10.00;99.90;;;;;;4945415;28;47320;-84
2023/01/08 11:28:51;;;;;;;7.83;1.90;;;10.10;99.90;;;;;;4947737;28;37315;-83
2023/01/08 11:31:37;;;;;;;6.07;1.52;;;10.10;99.90;;;;;;4947879;28;35985;-84
2023/01/08 11:34:15;;;;;;;7.23;1.60;;;10.10;99.90;;;;;;4955163;28;37396;-84
2023/01/08 11:37:35;;;;;;;7.80;1.40;;;10.20;99.90;;;;;;4955431;28;38207;-84
2023/01/08 11:40:11;;;;;;;5.77;1.33;;;10.30;99.90;;;;;;4925761;28;47007;-84
2023/01/08 11:42:43;;;;;;;5.57;1.60;;;10.40;99.90;;;;;;4966786;23;47257;-80
2023/01/08 11:45:18;;;;;;;5.13;1.23;;;10.40;99.90;;;;;;4942082;28;38997;-81
2023/01/08 11:48:00;;;;;;;11.80;1.90;;;10.50;99.90;;;;;;4933150;29;38543;-81
2023/01/08 11:50:45;;;;;;;7.40;1.23;;;10.40;99.90;;;;;;4922124;28;37528;-80
2023/01/08 11:53:34;;;;;;;5.83;1.13;;;10.60;99.90;;;;;;4936776;28;36938;-80
2023/01/08 11:56:10;;;;;;;6.30;1.37;;;10.50;99.90;;;;;;4942792;28;39110;-81
2023/01/08 11:59:14;;;;;;;6.33;1.47;;;10.40;99.90;;;;;;4949800;28;47329;-81
2023/01/08 12:02:02;;;;;;;5.03;1.40;;;10.40;99.90;;;;;;4925073;28;45775;-81
2023/01/08 12:05:02;;;;;;;5.00;1.30;;;10.40;99.90;;;;;;4938848;28;47272;-81
2023/01/08 12:07:53;;;;;;;8.70;1.83;;;10.50;99.90;;;;;;4926477;29;20028;-82
2023/01/08 12:10:38;;;;;;;5.60;1.50;;;10.40;99.90;;;;;;4936552;28;37817;-81
2023/01/08 12:13:07;;;;;;;6.17;1.30;;;10.50;99.90;;;;;;4943316;28;38456;-81
2023/01/08 12:15:58;;;;;;;7.70;1.53;;;10.60;99.90;;;;;;4919881;28;38134;-81
2023/01/08 12:18:45;;;;;;;7.82;1.30;;;10.60;99.90;;;;;;4943610;28;38787;-80
2023/01/08 12:21:22;;;;;;;6.33;1.57;;;10.60;99.90;;;;;;4926755;28;40353;-81
2023/01/08 12:24:03;;;;;;;7.63;1.47;;;10.70;99.90;;;;;;4939811;28;38395;-81
2023/01/08 12:26:50;;;;;;;3.40;1.47;;;10.80;99.90;;;;;;4948808;23;47716;-81
2023/01/08 12:29:41;;;;;;;6.10;1.23;;;10.90;99.90;;;;;;4942498;28;39442;-81
2023/01/08 12:32:14;;;;;;;4.83;1.17;;;10.90;99.90;;;;;;4935564;28;37520;-80
2023/01/08 12:35:01;;;;;;;5.67;1.00;;;10.90;99.90;;;;;;4937006;28;38805;-84
2023/01/08 12:37:49;;;;;;;5.27;1.23;;;10.90;99.90;;;;;;4936300;28;36969;-81
2023/01/08 12:40:42;;;;;;;4.43;0.80;;;10.90;99.90;;;;;;4945099;28;38124;-82
2023/01/08 12:43:21;;;;;;;8.35;1.48;;;10.90;99.90;;;;;;4922396;29;37938;-83
2023/01/08 12:45:52;;;;;;;5.00;1.50;;;10.90;99.90;;;;;;4921894;29;37158;-83
2023/01/08 12:48:22;;;;;;;6.03;1.17;;;10.90;99.90;;;;;;4938931;28;38256;-82
2023/01/08 12:51:16;;;;;;;6.67;1.13;;;10.70;99.90;;;;;;4937868;28;39530;-83
2023/01/08 12:53:48;;;;;;;4.37;1.10;;;10.70;99.90;;;;;;4943966;28;48526;-83
2023/01/08 12:56:14;;;;;;;6.80;1.60;;;10.80;99.90;;;;;;4940066;28;38589;-84
2023/01/08 12:58:59;;;;;;;4.60;1.00;;;10.70;99.90;;;;;;4936652;28;36290;-84
2023/01/08 13:01:46;;;;;;;5.43;1.37;;;10.80;99.90;;;;;;4930914;28;39592;-82
2023/01/08 13:04:12;;;;;;;3.90;1.17;;;10.80;99.90;;;;;;4925352;28;39727;-81
2023/01/08 13:06:49;;;;;;;6.90;1.53;;;10.70;99.90;;;;;;4917121;28;38269;-81
2023/01/08 13:09:22;;;;;;;6.27;1.47;;;10.60;99.90;;;;;;4907137;28;38085;-80
2023/01/08 13:11:54;;;;;;;10.50;1.60;;;10.70;99.90;;;;;;4929842;28;40297;-81
2023/01/08 13:14:22;;;;;;;6.03;1.75;;;10.70;99.90;;;;;;4929134;28;38474;-83